sensor_id;sensor_type;location;lat;lon;timestamp;temperature;humidity
81867;DHT22;71318;-36.550;-64.300;2023-10-19T00:02:06;7.90;99.90
81867;DHT22;71318;-36.550;-64.300;2023-10-19T00:04:33;7.90;99.90
81867;DHT22;71318;-36.550;-64.300;2023-10-19T00:07:02;7.90;99.90
81867;DHT22;71318;-36.550;-64.300;2023-10-19T00:09:30;8.00;99.90
81867;DHT22;71318;-36.550;-64.300;2023-10-19T00:12:05;7.90;99.90
81867;DHT22;71318;-36.550;-64.300;2023-10-19T00:14:35;7.90;99.90
81867;DHT22;71318;-36.550;-64.300;2023-10-19T00:17:01;7.90;99.90
81867;DHT22;71318;-36.550;-64.300;2023-10-19T00:19:36;7.90;99.90
81867;DHT22;71318;-36.550;-64.300;2023-10-19T00:22:08;8.00;99.90
81867;DHT22;71318;-36.550;-64.300;2023-10-19T00:24:36;7.90;99.90
81867;DHT22;71318;-36.550;-64.300;2023-10-19T00:27:04;7.90;99.90
81867;DHT22;71318;-36.550;-64.300;2023-10-19T00:29:42;8.00;99.90
81867;DHT22;71318;-36.550;-64.300;2023-10-19T00:32:15;7.90;99.90
81867;DHT22;71318;-36.550;-64.300;2023-10-19T00:34:43;7.90;99.90
81867;DHT22;71318;-36.550;-64.300;2023-10-19T00:37:16;7.90;99.90
81867;DHT22;71318;-36.550;-64.300;2023-10-19T00:39:45;7.90;99.90
81867;DHT22;71318;-36.550;-64.300;2023-10-19T00:42:20;7.90;99.90
81867;DHT22;71318;-36.550;-64.300;2023-10-19T00:44:58;8.00;99.90
81867;DHT22;71318;-36.550;-64.300;2023-10-19T00:47:30;7.90;99.90
81867;DHT22;71318;-36.550;-64.300;2023-10-19T00:50:06;8.00;99.90
81867;DHT22;71318;-36.550;-64.300;2023-10-19T00:52:38;8.00;99.90
81867;DHT22;71318;-36.550;-64.300;2023-10-19T00:55:10;8.00;99.90
81867;DHT22;71318;-36.550;-64.300;2023-10-19T00:57:39;8.00;99.90
81867;DHT22;71318;-36.550;-64.300;2023-10-19T01:00:08;8.00;99.90
81867;DHT22;71318;-36.550;-64.300;2023-10-19T01:02:38;8.00;99.90
81867;DHT22;71318;-36.550;-64.300;2023-10-19T01:05:11;7.90;99.90
81867;DHT22;71318;-36.550;-64.300;2023-10-19T01:07:47;8.00;99.90
81867;DHT22;71318;-36.550;-64.300;2023-10-19T01:10:23;8.00;99.90
81867;DHT22;71318;-36.550;-64.300;2023-10-19T01:12:49;8.00;99.90
81867;DHT22;71318;-36.550;-64.300;2023-10-19T01:15:17;8.10;99.90
81867;DHT22;71318;-36.550;-64.300;2023-10-19T01:17:50;8.00;99.90
81867;DHT22;71318;-36.550;-64.300;2023-10-19T01:20:25;8.10;99.90
81867;DHT22;71318;-36.550;-64.300;2023-10-19T01:22:56;8.10;99.90
81867;DHT22;71318;-36.550;-64.300;2023-10-19T01:28:16;8.00;99.90
81867;DHT22;71318;-36.550;-64.300;2023-10-19T01:30:43;8.10;99.90
81867;DHT22;71318;-36.550;-64.300;2023-10-19T01:33:17;8.10;99.90
81867;DHT22;71318;-36.550;-64.300;2023-10-19T01:35:47;8.10;99.90
81867;DHT22;71318;-36.550;-64.300;2023-10-19T01:38:31;8.20;99.90
81867;DHT22;71318;-36.550;-64.300;2023-10-19T01:40:59;8.20;99.90
81867;DHT22;71318;-36.550;-64.300;2023-10-19T01:43:26;8.10;99.90
81867;DHT22;71318;-36.550;-64.300;2023-10-19T01:46:00;8.30;99.90
81867;DHT22;71318;-36.550;-64.300;2023-10-19T01:51:22;8.10;99.90
81867;DHT22;71318;-36.550;-64.300;2023-10-19T01:53:54;8.00;99.90
81867;DHT22;71318;-36.550;-64.300;2023-10-19T01:56:24;7.90;99.90
81867;DHT22;71318;-36.550;-64.300;2023-10-19T01:58:50;7.80;99.90
81867;DHT22;71318;-36.550;-64.300;2023-10-19T02:01:20;7.80;99.90
81867;DHT22;71318;-36.550;-64.300;2023-10-19T02:03:47;7.80;99.90
81867;DHT22;71318;-36.550;-64.300;2023-10-19T02:06:18;7.80;99.90
81867;DHT22;71318;-36.550;-64.300;2023-10-19T02:09:08;7.80;99.90
81867;DHT22;71318;-36.550;-64.300;2023-10-19T02:11:35;7.90;99.90
81867;DHT22;71318;-36.550;-64.300;2023-10-19T02:14:07;7.80;99.90
81867;DHT22;71318;-36.550;-64.300;2023-10-19T02:16:40;7.90;99.90
81867;DHT22;71318;-36.550;-64.300;2023-10-19T02:19:07;7.90;99.90
81867;DHT22;71318;-36.550;-64.300;2023-10-19T02:21:33;8.00;99.90
81867;DHT22;71318;-36.550;-64.300;2023-10-19T02:24:05;8.00;99.90
81867;DHT22;71318;-36.550;-64.300;2023-10-19T02:26:32;7.90;99.90
81867;DHT22;71318;-36.550;-64.300;2023-10-19T02:28:59;7.90;99.90
81867;DHT22;71318;-36.550;-64.300;2023-10-19T02:31:25;7.90;99.90
81867;DHT22;71318;-36.550;-64.300;2023-10-19T02:33:52;7.90;99.90
81867;DHT22;71318;-36.550;-64.300;2023-10-19T02:36:30;8.00;99.90
81867;DHT22;71318;-36.550;-64.300;2023-10-19T02:38:56;8.00;99.90
81867;DHT22;71318;-36.550;-64.300;2023-10-19T02:41:26;7.90;99.90
81867;DHT22;71318;-36.550;-64.300;2023-10-19T02:43:53;7.90;99.90
81867;DHT22;71318;-36.550;-64.300;2023-10-19T02:46:36;8.00;99.90
81867;DHT22;71318;-36.550;-64.300;2023-10-19T02:49:05;8.00;99.90
81867;DHT22;71318;-36.550;-64.300;2023-10-19T02:51:37;8.00;99.90
81867;DHT22;71318;-36.550;-64.300;2023-10-19T02:54:05;7.90;99.90
81867;DHT22;71318;-36.550;-64.300;2023-10-19T02:56:35;7.90;99.90
81867;DHT22;71318;-36.550;-64.300;2023-10-19T02:59:02;7.90;99.90
81867;DHT22;71318;-36.550;-64.300;2023-10-19T03:01:31;8.00;99.90
81867;DHT22;71318;-36.550;-64.300;2023-10-19T03:04:00;8.00;99.90
81867;DHT22;71318;-36.550;-64.300;2023-10-19T03:06:27;8.00;99.90
81867;DHT22;71318;-36.550;-64.300;2023-10-19T03:08:58;8.00;99.90
81867;DHT22;71318;-36.550;-64.300;2023-10-19T03:11:30;8.00;99.90
81867;DHT22;71318;-36.550;-64.300;2023-10-19T03:14:00;8.00;99.90
81867;DHT22;71318;-36.550;-64.300;2023-10-19T03:16:30;7.90;99.90
81867;DHT22;71318;-36.550;-64.300;2023-10-19T03:18:57;7.90;99.90
81867;DHT22;71318;-36.550;-64.300;2023-10-19T03:21:23;7.90;99.90
81867;DHT22;71318;-36.550;-64.300;2023-10-19T03:23:53;8.00;99.90
81867;DHT22;71318;-36.550;-64.300;2023-10-19T03:26:19;8.00;99.90
81867;DHT22;71318;-36.550;-64.300;2023-10-19T03:28:49;8.10;99.90
81867;DHT22;71318;-36.550;-64.300;2023-10-19T03:31:23;8.10;99.90
81867;DHT22;71318;-36.550;-64.300;2023-10-19T03:33:53;8.10;99.90
81867;DHT22;71318;-36.550;-64.300;2023-10-19T03:36:25;8.10;99.90
81867;DHT22;71318;-36.550;-64.300;2023-10-19T03:38:52;8.00;99.90
81867;DHT22;71318;-36.550;-64.300;2023-10-19T03:41:19;8.10;99.90
81867;DHT22;71318;-36.550;-64.300;2023-10-19T03:43:51;8.00;99.90
81867;DHT22;71318;-36.550;-64.300;2023-10-19T03:46:20;8.00;99.90
81867;DHT22;71318;-36.550;-64.300;2023-10-19T03:49:06;8.10;99.90
81867;DHT22;71318;-36.550;-64.300;2023-10-19T03:51:39;8.10;99.90
81867;DHT22;71318;-36.550;-64.300;2023-10-19T03:54:06;8.10;99.90
81867;DHT22;71318;-36.550;-64.300;2023-10-19T03:56:50;8.20;99.90
81867;DHT22;71318;-36.550;-64.300;2023-10-19T03:59:16;8.20;99.90
81867;DHT22;71318;-36.550;-64.300;2023-10-19T04:01:43;8.20;99.90
81867;DHT22;71318;-36.550;-64.300;2023-10-19T04:04:10;8.10;99.90
81867;DHT22;71318;-36.550;-64.300;2023-10-19T04:06:36;8.10;99.90
81867;DHT22;71318;-36.550;-64.300;2023-10-19T04:09:03;8.10;99.90
81867;DHT22;71318;-36.550;-64.300;2023-10-19T04:11:33;8.10;99.90
81867;DHT22;71318;-36.550;-64.300;2023-10-19T04:14:14;8.10;99.90
81867;DHT22;71318;-36.550;-64.300;2023-10-19T04:16:46;8.10;99.90
81867;DHT22;71318;-36.550;-64.300;2023-10-19T04:19:14;8.10;99.90
81867;DHT22;71318;-36.550;-64.300;2023-10-19T04:21:42;8.10;99.90
81867;DHT22;71318;-36.550;-64.300;2023-10-19T04:24:12;8.10;99.90
81867;DHT22;71318;-36.550;-64.300;2023-10-19T04:26:40;8.00;99.90
81867;DHT22;71318;-36.550;-64.300;2023-10-19T04:29:08;8.10;99.90
81867;DHT22;71318;-36.550;-64.300;2023-10-19T04:31:38;8.10;99.90
81867;DHT22;71318;-36.550;-64.300;2023-10-19T04:34:16;8.10;99.90
81867;DHT22;71318;-36.550;-64.300;2023-10-19T04:36:47;8.00;99.90
81867;DHT22;71318;-36.550;-64.300;2023-10-19T04:39:13;8.00;99.90
81867;DHT22;71318;-36.550;-64.300;2023-10-19T04:41:39;8.00;99.90
81867;DHT22;71318;-36.550;-64.300;2023-10-19T04:44:06;8.10;99.90
81867;DHT22;71318;-36.550;-64.300;2023-10-19T04:46:36;8.10;99.90
81867;DHT22;71318;-36.550;-64.300;2023-10-19T04:49:03;8.10;99.90
81867;DHT22;71318;-36.550;-64.300;2023-10-19T04:51:29;8.10;99.90
81867;DHT22;71318;-36.550;-64.300;2023-10-19T04:53:56;8.20;99.90
81867;DHT22;71318;-36.550;-64.300;2023-10-19T04:56:22;8.10;99.90
81867;DHT22;71318;-36.550;-64.300;2023-10-19T04:58:49;8.10;99.90
81867;DHT22;71318;-36.550;-64.300;2023-10-19T05:01:15;8.10;99.90
81867;DHT22;71318;-36.550;-64.300;2023-10-19T05:03:41;8.10;99.90
81867;DHT22;71318;-36.550;-64.300;2023-10-19T05:06:08;8.10;99.90
81867;DHT22;71318;-36.550;-64.300;2023-10-19T05:08:39;8.10;99.90
81867;DHT22;71318;-36.550;-64.300;2023-10-19T05:11:05;8.10;99.90
81867;DHT22;71318;-36.550;-64.300;2023-10-19T05:13:32;8.10;99.90
81867;DHT22;71318;-36.550;-64.300;2023-10-19T05:16:00;8.20;99.90
81867;DHT22;71318;-36.550;-64.300;2023-10-19T05:18:27;8.10;99.90
81867;DHT22;71318;-36.550;-64.300;2023-10-19T05:20:54;8.10;99.90
81867;DHT22;71318;-36.550;-64.300;2023-10-19T05:23:23;8.10;99.90
81867;DHT22;71318;-36.550;-64.300;2023-10-19T05:25:50;8.10;99.90
81867;DHT22;71318;-36.550;-64.300;2023-10-19T05:28:18;8.10;99.90
81867;DHT22;71318;-36.550;-64.300;2023-10-19T05:30:44;8.10;99.90
81867;DHT22;71318;-36.550;-64.300;2023-10-19T05:33:11;8.10;99.90
81867;DHT22;71318;-36.550;-64.300;2023-10-19T05:35:37;8.10;99.90
81867;DHT22;71318;-36.550;-64.300;2023-10-19T05:38:09;8.10;99.90
81867;DHT22;71318;-36.550;-64.300;2023-10-19T05:40:35;8.10;99.90
81867;DHT22;71318;-36.550;-64.300;2023-10-19T05:43:02;8.10;99.90
81867;DHT22;71318;-36.550;-64.300;2023-10-19T05:45:28;8.10;99.90
81867;DHT22;71318;-36.550;-64.300;2023-10-19T05:47:55;8.10;99.90
81867;DHT22;71318;-36.550;-64.300;2023-10-19T05:50:23;8.10;99.90
81867;DHT22;71318;-36.550;-64.300;2023-10-19T05:52:49;8.10;99.90
81867;DHT22;71318;-36.550;-64.300;2023-10-19T05:55:17;8.10;99.90
81867;DHT22;71318;-36.550;-64.300;2023-10-19T05:57:47;8.10;99.90
81867;DHT22;71318;-36.550;-64.300;2023-10-19T06:00:13;8.10;99.90
81867;DHT22;71318;-36.550;-64.300;2023-10-19T06:02:41;8.10;99.90
81867;DHT22;71318;-36.550;-64.300;2023-10-19T06:05:09;8.10;99.90
81867;DHT22;71318;-36.550;-64.300;2023-10-19T06:07:35;8.20;99.90
81867;DHT22;71318;-36.550;-64.300;2023-10-19T06:10:03;8.20;99.90
81867;DHT22;71318;-36.550;-64.300;2023-10-19T06:12:32;8.20;99.90
81867;DHT22;71318;-36.550;-64.300;2023-10-19T06:14:58;8.20;99.90
81867;DHT22;71318;-36.550;-64.300;2023-10-19T06:17:26;8.20;99.90
81867;DHT22;71318;-36.550;-64.300;2023-10-19T06:19:53;8.20;99.90
81867;DHT22;71318;-36.550;-64.300;2023-10-19T06:22:20;8.20;99.90
81867;DHT22;71318;-36.550;-64.300;2023-10-19T06:24:46;8.20;99.90
81867;DHT22;71318;-36.550;-64.300;2023-10-19T06:27:13;8.20;99.90
81867;DHT22;71318;-36.550;-64.300;2023-10-19T06:29:39;8.20;99.90
81867;DHT22;71318;-36.550;-64.300;2023-10-19T06:32:05;8.20;99.90
81867;DHT22;71318;-36.550;-64.300;2023-10-19T06:34:32;8.20;99.90
81867;DHT22;71318;-36.550;-64.300;2023-10-19T06:36:58;8.20;99.90
81867;DHT22;71318;-36.550;-64.300;2023-10-19T06:39:26;8.30;99.90
81867;DHT22;71318;-36.550;-64.300;2023-10-19T06:41:52;8.30;99.90
81867;DHT22;71318;-36.550;-64.300;2023-10-19T06:44:19;8.30;99.90
81867;DHT22;71318;-36.550;-64.300;2023-10-19T06:46:48;8.30;99.90
81867;DHT22;71318;-36.550;-64.300;2023-10-19T06:49:14;8.30;99.90
81867;DHT22;71318;-36.550;-64.300;2023-10-19T06:51:41;8.30;99.90
81867;DHT22;71318;-36.550;-64.300;2023-10-19T06:54:08;8.30;99.90
81867;DHT22;71318;-36.550;-64.300;2023-10-19T06:56:34;8.30;99.90
81867;DHT22;71318;-36.550;-64.300;2023-10-19T06:59:03;8.30;99.90
81867;DHT22;71318;-36.550;-64.300;2023-10-19T07:01:31;8.40;99.90
81867;DHT22;71318;-36.550;-64.300;2023-10-19T07:03:58;8.40;99.90
81867;DHT22;71318;-36.550;-64.300;2023-10-19T07:06:24;8.40;99.90
81867;DHT22;71318;-36.550;-64.300;2023-10-19T07:08:52;8.40;99.90
81867;DHT22;71318;-36.550;-64.300;2023-10-19T07:11:18;8.40;99.90
81867;DHT22;71318;-36.550;-64.300;2023-10-19T07:13:44;8.40;99.90
81867;DHT22;71318;-36.550;-64.300;2023-10-19T07:16:11;8.50;99.90
81867;DHT22;71318;-36.550;-64.300;2023-10-19T07:18:38;8.50;99.90
81867;DHT22;71318;-36.550;-64.300;2023-10-19T07:21:05;8.40;99.90
81867;DHT22;71318;-36.550;-64.300;2023-10-19T07:23:35;8.50;99.90
81867;DHT22;71318;-36.550;-64.300;2023-10-19T07:26:03;8.50;99.90
81867;DHT22;71318;-36.550;-64.300;2023-10-19T07:28:31;8.40;99.90
81867;DHT22;71318;-36.550;-64.300;2023-10-19T07:30:58;8.40;99.90
81867;DHT22;71318;-36.550;-64.300;2023-10-19T07:33:27;8.30;99.90
81867;DHT22;71318;-36.550;-64.300;2023-10-19T07:35:54;8.40;99.90
81867;DHT22;71318;-36.550;-64.300;2023-10-19T07:38:23;8.40;99.90
81867;DHT22;71318;-36.550;-64.300;2023-10-19T07:40:51;8.40;99.90
81867;DHT22;71318;-36.550;-64.300;2023-10-19T07:43:20;8.50;99.90
81867;DHT22;71318;-36.550;-64.300;2023-10-19T07:45:47;8.60;99.90
81867;DHT22;71318;-36.550;-64.300;2023-10-19T07:48:14;8.60;99.90
81867;DHT22;71318;-36.550;-64.300;2023-10-19T07:50:40;8.60;99.90
81867;DHT22;71318;-36.550;-64.300;2023-10-19T07:53:08;8.70;99.90
81867;DHT22;71318;-36.550;-64.300;2023-10-19T07:55:35;8.70;99.90
81867;DHT22;71318;-36.550;-64.300;2023-10-19T07:58:01;8.70;99.90
81867;DHT22;71318;-36.550;-64.300;2023-10-19T08:00:32;8.70;99.90
81867;DHT22;71318;-36.550;-64.300;2023-10-19T08:03:05;8.70;99.90
81867;DHT22;71318;-36.550;-64.300;2023-10-19T08:05:32;8.70;99.90
81867;DHT22;71318;-36.550;-64.300;2023-10-19T08:07:59;8.80;99.90
81867;DHT22;71318;-36.550;-64.300;2023-10-19T08:10:26;8.80;99.90
81867;DHT22;71318;-36.550;-64.300;2023-10-19T08:12:55;8.90;99.90
81867;DHT22;71318;-36.550;-64.300;2023-10-19T08:15:21;8.90;99.90
81867;DHT22;71318;-36.550;-64.300;2023-10-19T08:17:48;8.90;99.90
81867;DHT22;71318;-36.550;-64.300;2023-10-19T08:20:16;8.90;99.90
81867;DHT22;71318;-36.550;-64.300;2023-10-19T08:23:02;8.90;99.90
81867;DHT22;71318;-36.550;-64.300;2023-10-19T08:25:29;8.90;99.90
81867;DHT22;71318;-36.550;-64.300;2023-10-19T08:27:55;8.90;99.90
81867;DHT22;71318;-36.550;-64.300;2023-10-19T08:30:25;8.90;99.90
81867;DHT22;71318;-36.550;-64.300;2023-10-19T08:32:52;8.90;99.90
81867;DHT22;71318;-36.550;-64.300;2023-10-19T08:35:20;8.90;99.90
81867;DHT22;71318;-36.550;-64.300;2023-10-19T08:37:50;8.80;99.90
81867;DHT22;71318;-36.550;-64.300;2023-10-19T08:40:17;8.80;99.90
81867;DHT22;71318;-36.550;-64.300;2023-10-19T08:42:44;8.90;99.90
81867;DHT22;71318;-36.550;-64.300;2023-10-19T08:45:11;8.80;99.90
81867;DHT22;71318;-36.550;-64.300;2023-10-19T08:47:49;8.80;99.90
81867;DHT22;71318;-36.550;-64.300;2023-10-19T08:50:23;8.80;99.90
81867;DHT22;71318;-36.550;-64.300;2023-10-19T08:52:52;8.80;99.90
81867;DHT22;71318;-36.550;-64.300;2023-10-19T08:55:19;8.80;99.90
81867;DHT22;71318;-36.550;-64.300;2023-10-19T08:57:46;8.90;99.90
81867;DHT22;71318;-36.550;-64.300;2023-10-19T09:00:14;8.90;99.90
81867;DHT22;71318;-36.550;-64.300;2023-10-19T09:02:46;8.90;99.90
81867;DHT22;71318;-36.550;-64.300;2023-10-19T09:05:13;8.90;99.90
81867;DHT22;71318;-36.550;-64.300;2023-10-19T09:07:49;8.80;99.90
81867;DHT22;71318;-36.550;-64.300;2023-10-19T09:10:21;8.80;99.90
81867;DHT22;71318;-36.550;-64.300;2023-10-19T09:15:48;8.80;99.90
81867;DHT22;71318;-36.550;-64.300;2023-10-19T09:18:22;8.80;99.90
81867;DHT22;71318;-36.550;-64.300;2023-10-19T09:20:49;8.80;99.90
81867;DHT22;71318;-36.550;-64.300;2023-10-19T09:23:22;8.80;99.90
81867;DHT22;71318;-36.550;-64.300;2023-10-19T09:25:51;8.90;99.90
81867;DHT22;71318;-36.550;-64.300;2023-10-19T09:28:21;8.90;99.90
81867;DHT22;71318;-36.550;-64.300;2023-10-19T09:30:50;9.00;99.90
81867;DHT22;71318;-36.550;-64.300;2023-10-19T09:33:17;9.00;99.90
81867;DHT22;71318;-36.550;-64.300;2023-10-19T09:35:46;9.10;99.90
81867;DHT22;71318;-36.550;-64.300;2023-10-19T09:38:18;9.20;99.90
81867;DHT22;71318;-36.550;-64.300;2023-10-19T09:40:50;9.20;99.90
81867;DHT22;71318;-36.550;-64.300;2023-10-19T09:43:25;9.20;99.90
81867;DHT22;71318;-36.550;-64.300;2023-10-19T09:45:54;9.20;99.90
81867;DHT22;71318;-36.550;-64.300;2023-10-19T09:48:24;9.30;99.90
81867;DHT22;71318;-36.550;-64.300;2023-10-19T09:50:54;9.40;99.90
81867;DHT22;71318;-36.550;-64.300;2023-10-19T09:53:30;9.40;99.90
81867;DHT22;71318;-36.550;-64.300;2023-10-19T09:55:58;9.40;99.90
81867;DHT22;71318;-36.550;-64.300;2023-10-19T09:58:29;9.50;99.90
81867;DHT22;71318;-36.550;-64.300;2023-10-19T10:00:57;9.50;99.90
81867;DHT22;71318;-36.550;-64.300;2023-10-19T10:03:42;9.50;99.90
81867;DHT22;71318;-36.550;-64.300;2023-10-19T10:06:10;9.50;99.90
81867;DHT22;71318;-36.550;-64.300;2023-10-19T10:08:41;9.40;99.90
81867;DHT22;71318;-36.550;-64.300;2023-10-19T10:13:41;9.50;99.90
81867;DHT22;71318;-36.550;-64.300;2023-10-19T10:16:07;9.50;99.90
81867;DHT22;71318;-36.550;-64.300;2023-10-19T10:18:35;9.50;99.90
81867;DHT22;71318;-36.550;-64.300;2023-10-19T10:23:31;9.60;99.90
81867;DHT22;71318;-36.550;-64.300;2023-10-19T10:25:58;9.60;99.90
81867;DHT22;71318;-36.550;-64.300;2023-10-19T10:28:24;9.60;99.90
81867;DHT22;71318;-36.550;-64.300;2023-10-19T10:33:39;9.70;99.90
81867;DHT22;71318;-36.550;-64.300;2023-10-19T10:36:06;9.70;99.90
81867;DHT22;71318;-36.550;-64.300;2023-10-19T10:38:36;9.80;99.90
81867;DHT22;71318;-36.550;-64.300;2023-10-19T10:41:03;9.80;99.90
81867;DHT22;71318;-36.550;-64.300;2023-10-19T10:43:29;9.90;99.90
81867;DHT22;71318;-36.550;-64.300;2023-10-19T10:46:05;9.90;99.90
81867;DHT22;71318;-36.550;-64.300;2023-10-19T10:48:31;9.90;99.90
81867;DHT22;71318;-36.550;-64.300;2023-10-19T10:50:58;10.00;99.90
81867;DHT22;71318;-36.550;-64.300;2023-10-19T10:53:24;10.10;99.90
81867;DHT22;71318;-36.550;-64.300;2023-10-19T10:55:53;10.10;99.90
81867;DHT22;71318;-36.550;-64.300;2023-10-19T10:58:19;10.20;99.90
81867;DHT22;71318;-36.550;-64.300;2023-10-19T11:00:46;10.20;99.90
81867;DHT22;71318;-36.550;-64.300;2023-10-19T11:03:20;10.30;99.90
81867;DHT22;71318;-36.550;-64.300;2023-10-19T11:05:47;10.30;99.90
81867;DHT22;71318;-36.550;-64.300;2023-10-19T11:08:15;10.40;99.90
81867;DHT22;71318;-36.550;-64.300;2023-10-19T11:10:46;10.40;99.90
81867;DHT22;71318;-36.550;-64.300;2023-10-19T11:13:13;10.40;99.90
81867;DHT22;71318;-36.550;-64.300;2023-10-19T11:15:50;10.50;99.90
81867;DHT22;71318;-36.550;-64.300;2023-10-19T11:18:30;10.50;99.90
81867;DHT22;71318;-36.550;-64.300;2023-10-19T11:21:00;10.50;99.90
81867;DHT22;71318;-36.550;-64.300;2023-10-19T11:26:05;10.50;99.90
81867;DHT22;71318;-36.550;-64.300;2023-10-19T11:28:33;10.70;99.90
81867;DHT22;71318;-36.550;-64.300;2023-10-19T11:31:15;10.70;99.90
81867;DHT22;71318;-36.550;-64.300;2023-10-19T11:33:43;10.70;99.90
81867;DHT22;71318;-36.550;-64.300;2023-10-19T11:36:10;10.70;99.90
81867;DHT22;71318;-36.550;-64.300;2023-10-19T11:38:41;10.60;99.90
81867;DHT22;71318;-36.550;-64.300;2023-10-19T11:41:08;10.60;99.90
81867;DHT22;71318;-36.550;-64.300;2023-10-19T11:43:35;10.70;99.90
81867;DHT22;71318;-36.550;-64.300;2023-10-19T11:46:02;10.80;99.90
81867;DHT22;71318;-36.550;-64.300;2023-10-19T11:48:34;11.00;99.90
81867;DHT22;71318;-36.550;-64.300;2023-10-19T11:51:02;11.10;99.90
81867;DHT22;71318;-36.550;-64.300;2023-10-19T11:53:32;11.40;99.90
81867;DHT22;71318;-36.550;-64.300;2023-10-19T11:56:01;11.90;99.90
81867;DHT22;71318;-36.550;-64.300;2023-10-19T11:58:27;12.00;99.20
81867;DHT22;71318;-36.550;-64.300;2023-10-19T16:14:38;20.60;48.60
81867;DHT22;71318;-36.550;-64.300;2023-10-19T16:17:08;19.70;50.30
81867;DHT22;71318;-36.550;-64.300;2023-10-19T16:19:39;20.00;53.10
81867;DHT22;71318;-36.550;-64.300;2023-10-19T16:22:06;20.30;51.60
81867;DHT22;71318;-36.550;-64.300;2023-10-19T16:24:33;20.30;49.60
81867;DHT22;71318;-36.550;-64.300;2023-10-19T16:27:00;20.40;49.50
81867;DHT22;71318;-36.550;-64.300;2023-10-19T16:29:27;20.70;49.80
81867;DHT22;71318;-36.550;-64.300;2023-10-19T23:26:32;14.80;79.00
81867;DHT22;71318;-36.550;-64.300;2023-10-19T23:28:59;14.60;79.80
81867;DHT22;71318;-36.550;-64.300;2023-10-19T23:31:30;14.50;80.00
81867;DHT22;71318;-36.550;-64.300;2023-10-19T23:33:59;14.50;80.70
81867;DHT22;71318;-36.550;-64.300;2023-10-19T23:36:26;14.50;80.70
81867;DHT22;71318;-36.550;-64.300;2023-10-19T23:38:52;14.50;80.60
81867;DHT22;71318;-36.550;-64.300;2023-10-19T23:41:19;14.40;81.00
81867;DHT22;71318;-36.550;-64.300;2023-10-19T23:43:45;14.30;81.70
81867;DHT22;71318;-36.550;-64.300;2023-10-19T23:46:12;14.20;82.30
81867;DHT22;71318;-36.550;-64.300;2023-10-19T23:48:38;14.10;82.70
81867;DHT22;71318;-36.550;-64.300;2023-10-19T23:51:09;14.10;82.70
81867;DHT22;71318;-36.550;-64.300;2023-10-19T23:53:35;14.20;82.50
81867;DHT22;71318;-36.550;-64.300;2023-10-19T23:56:02;14.10;82.40
81867;DHT22;71318;-36.550;-64.300;2023-10-19T23:58:28;14.10;82.80
